createdAt,value
2023-04-22T00:00:07.912Z,1006.11
2023-04-22T00:01:07.890Z,1006.12
2023-04-22T00:02:08.060Z,1006.07
2023-04-22T00:03:07.947Z,1006.05
2023-04-22T00:04:08.260Z,1006.00
2023-04-22T00:05:07.948Z,1005.99
2023-04-22T00:06:07.843Z,1006.00
2023-04-22T00:07:07.825Z,1006.03
2023-04-22T00:08:07.841Z,1006.00
2023-04-22T00:09:07.775Z,1005.94
2023-04-22T00:10:07.820Z,1005.95
2023-04-22T00:11:07.753Z,1005.92
2023-04-22T00:12:07.784Z,1005.90
2023-04-22T00:13:07.796Z,1005.93
2023-04-22T00:14:07.770Z,1005.92
2023-04-22T00:15:07.686Z,1005.94
2023-04-22T00:16:07.829Z,1005.89
2023-04-22T00:17:07.699Z,1005.89
2023-04-22T00:18:07.708Z,1005.83
2023-04-22T00:19:07.682Z,1005.84
2023-04-22T00:20:07.805Z,1005.79
2023-04-22T00:21:07.647Z,1005.72
2023-04-22T00:22:07.651Z,1005.73
2023-04-22T00:23:07.624Z,1005.73
2023-04-22T00:24:07.663Z,1005.76
2023-04-22T00:25:07.589Z,1005.74
2023-04-22T00:26:07.621Z,1005.73
2023-04-22T00:27:07.560Z,1005.72
2023-04-22T00:28:07.539Z,1005.66
2023-04-22T00:29:07.499Z,1005.67
2023-04-22T00:30:07.539Z,1005.63
2023-04-22T00:31:07.543Z,1005.64
2023-04-22T00:32:07.500Z,1005.58
2023-04-22T00:33:07.538Z,1005.56
2023-04-22T00:34:07.465Z,1005.54
2023-04-22T00:35:07.462Z,1005.55
2023-04-22T00:36:07.444Z,1005.61
2023-04-22T00:37:07.453Z,1005.61
2023-04-22T00:38:07.496Z,1005.58
2023-04-22T00:39:07.422Z,1005.58
2023-04-22T00:40:07.362Z,1005.57
2023-04-22T00:41:07.374Z,1005.60
2023-04-22T00:42:07.373Z,1005.59
2023-04-22T00:43:07.341Z,1005.58
2023-04-22T00:44:07.354Z,1005.56
2023-04-22T00:45:07.343Z,1005.54
2023-04-22T00:46:07.272Z,1005.59
2023-04-22T00:47:07.428Z,1005.54
2023-04-22T00:48:07.325Z,1005.53
2023-04-22T00:49:07.299Z,1005.54
2023-04-22T00:50:07.252Z,1005.58
2023-04-22T00:51:07.280Z,1005.51
2023-04-22T00:52:07.197Z,1005.52
2023-04-22T00:53:07.215Z,1005.51
2023-04-22T00:54:07.211Z,1005.56
2023-04-22T00:55:07.244Z,1005.53
2023-04-22T00:56:07.279Z,1005.56
2023-04-22T00:57:07.188Z,1005.52
2023-04-22T00:58:07.111Z,1005.48
2023-04-22T00:59:07.163Z,1005.48
2023-04-22T01:00:07.091Z,1005.48
2023-04-22T01:01:07.161Z,1005.48
2023-04-22T01:02:07.313Z,1005.47
2023-04-22T01:03:07.369Z,1005.44
2023-04-22T01:04:07.219Z,1005.46
2023-04-22T01:05:07.063Z,1005.50
2023-04-22T01:06:07.050Z,1005.48
2023-04-22T01:07:07.026Z,1005.47
2023-04-22T01:08:07.044Z,1005.44
2023-04-22T01:09:07.032Z,1005.43
2023-04-22T01:10:06.968Z,1005.41
2023-04-22T01:11:07.030Z,1005.40
2023-04-22T01:12:06.939Z,1005.42
2023-04-22T01:13:06.995Z,1005.39
2023-04-22T01:14:06.974Z,1005.38
2023-04-22T01:15:06.977Z,1005.42
2023-04-22T01:16:06.957Z,1005.43
2023-04-22T01:17:07.063Z,1005.37
2023-04-22T01:18:06.882Z,1005.37
2023-04-22T01:19:06.952Z,1005.41
2023-04-22T01:20:07.042Z,1005.41
2023-04-22T01:21:06.874Z,1005.41
2023-04-22T01:22:06.811Z,1005.40
2023-04-22T01:23:06.852Z,1005.42
2023-04-22T01:24:06.780Z,1005.43
2023-04-22T01:25:06.797Z,1005.45
2023-04-22T01:26:06.899Z,1005.45
2023-04-22T01:27:06.765Z,1005.44
2023-04-22T01:28:06.765Z,1005.42
2023-04-22T01:29:06.772Z,1005.41
2023-04-22T01:30:06.713Z,1005.41
2023-04-22T01:31:06.747Z,1005.38
2023-04-22T01:32:06.946Z,1005.43
2023-04-22T01:33:06.698Z,1005.39
2023-04-22T01:34:06.671Z,1005.37
2023-04-22T01:35:06.667Z,1005.42
2023-04-22T01:36:06.640Z,1005.40
2023-04-22T01:37:06.686Z,1005.44
2023-04-22T01:38:06.616Z,1005.39
2023-04-22T01:39:06.627Z,1005.42
2023-04-22T01:40:06.562Z,1005.37
2023-04-22T01:41:06.590Z,1005.37
2023-04-22T01:42:06.564Z,1005.39
2023-04-22T01:43:06.569Z,1005.38
2023-04-22T01:44:06.571Z,1005.36
2023-04-22T01:45:06.547Z,1005.31
2023-04-22T01:46:06.510Z,1005.34
2023-04-22T01:47:06.532Z,1005.36
2023-04-22T01:48:06.473Z,1005.36
2023-04-22T01:49:06.467Z,1005.34
2023-04-22T01:50:06.585Z,1005.32
2023-04-22T01:51:06.474Z,1005.32
2023-04-22T01:52:06.403Z,1005.39
2023-04-22T01:53:06.417Z,1005.37
2023-04-22T01:54:06.411Z,1005.43
2023-04-22T01:55:06.396Z,1005.38
2023-04-22T01:56:06.406Z,1005.36
2023-04-22T01:57:06.389Z,1005.36
2023-04-22T01:58:06.332Z,1005.35
2023-04-22T01:59:06.368Z,1005.38
2023-04-22T02:00:06.313Z,1005.35
2023-04-22T02:01:06.358Z,1005.38
2023-04-22T02:02:06.454Z,1005.35
2023-04-22T02:03:06.401Z,1005.37
2023-04-22T02:04:06.270Z,1005.36
2023-04-22T02:05:06.404Z,1005.38
2023-04-22T02:06:06.223Z,1005.35
2023-04-22T02:07:06.236Z,1005.32
2023-04-22T02:08:06.267Z,1005.31
2023-04-22T02:09:06.237Z,1005.32
2023-04-22T02:10:06.172Z,1005.33
2023-04-22T02:11:06.213Z,1005.34
2023-04-22T02:12:06.136Z,1005.29
2023-04-22T02:13:06.147Z,1005.29
2023-04-22T02:14:06.174Z,1005.31
2023-04-22T02:15:06.120Z,1005.31
2023-04-22T02:16:06.189Z,1005.35
2023-04-22T02:17:06.135Z,1005.32
2023-04-22T02:18:06.062Z,1005.32
2023-04-22T02:19:06.092Z,1005.33
2023-04-22T02:20:06.136Z,1005.28
2023-04-22T02:21:06.057Z,1005.24
2023-04-22T02:22:06.029Z,1005.25
2023-04-22T02:23:06.042Z,1005.23
2023-04-22T02:24:05.989Z,1005.26
2023-04-22T02:25:05.990Z,1005.19
2023-04-22T02:26:06.006Z,1005.20
2023-04-22T02:27:05.959Z,1005.20
2023-04-22T02:28:05.959Z,1005.21
2023-04-22T02:29:05.954Z,1005.12
2023-04-22T02:30:05.895Z,1005.20
2023-04-22T02:31:05.974Z,1005.22
2023-04-22T02:32:05.907Z,1005.17
2023-04-22T02:33:05.960Z,1005.18
2023-04-22T02:34:05.864Z,1005.17
2023-04-22T02:35:05.856Z,1005.12
2023-04-22T02:36:05.841Z,1005.11
2023-04-22T02:37:05.855Z,1005.12
2023-04-22T02:38:05.845Z,1005.15
2023-04-22T02:39:05.832Z,1005.12
2023-04-22T02:40:05.760Z,1005.13
2023-04-22T02:41:05.782Z,1005.11
2023-04-22T02:42:05.758Z,1005.12
2023-04-22T02:43:05.749Z,1005.14
2023-04-22T02:44:05.861Z,1005.11
2023-04-22T02:45:05.748Z,1005.06
2023-04-22T02:46:05.726Z,1005.11
2023-04-22T02:47:05.750Z,1005.10
2023-04-22T02:48:05.689Z,1005.09
2023-04-22T02:49:05.674Z,1005.11
2023-04-22T02:50:05.804Z,1005.10
2023-04-22T02:51:05.651Z,1005.12
2023-04-22T02:52:05.639Z,1005.11
2023-04-22T02:53:05.643Z,1005.06
2023-04-22T02:54:05.575Z,1005.05
2023-04-22T02:55:05.590Z,1004.98
2023-04-22T02:56:05.747Z,1005.02
2023-04-22T02:57:05.583Z,1005.00
2023-04-22T02:58:05.529Z,1005.00
2023-04-22T02:59:05.552Z,1004.97
2023-04-22T03:00:05.505Z,1005.01
2023-04-22T03:01:05.553Z,1005.05
2023-04-22T03:02:07.037Z,1004.99
2023-04-22T03:03:05.568Z,1005.00
2023-04-22T03:04:05.569Z,1004.96
2023-04-22T03:05:05.477Z,1004.97
2023-04-22T03:06:05.415Z,1005.01
2023-04-22T03:07:05.450Z,1005.02
2023-04-22T03:08:05.419Z,1005.01
2023-04-22T03:09:05.406Z,1005.06
2023-04-22T03:10:05.386Z,1005.03
2023-04-22T03:11:05.410Z,1005.01
2023-04-22T03:12:05.334Z,1005.00
2023-04-22T03:13:05.367Z,1005.01
2023-04-22T03:14:05.454Z,1005.01
2023-04-22T03:15:05.327Z,1005.00
2023-04-22T03:16:05.316Z,1004.98
2023-04-22T03:17:05.323Z,1004.95
2023-04-22T03:18:05.331Z,1005.02
2023-04-22T03:19:05.290Z,1004.97
2023-04-22T03:20:05.272Z,1005.01
2023-04-22T03:21:05.247Z,1004.97
2023-04-22T03:22:05.240Z,1004.94
2023-04-22T03:23:05.211Z,1004.93
2023-04-22T03:24:05.197Z,1004.96
2023-04-22T03:25:05.207Z,1004.93
2023-04-22T03:26:05.274Z,1004.94
2023-04-22T03:27:05.157Z,1004.91
2023-04-22T03:28:05.153Z,1004.93
2023-04-22T03:29:05.159Z,1004.93
2023-04-22T03:30:05.091Z,1004.94
2023-04-22T03:31:05.142Z,1004.96
2023-04-22T03:32:05.157Z,1004.92
2023-04-22T03:33:05.090Z,1004.99
2023-04-22T03:34:05.067Z,1004.97
2023-04-22T03:35:05.050Z,1005.00
2023-04-22T03:36:05.057Z,1004.97
2023-04-22T03:37:05.064Z,1004.94
2023-04-22T03:38:05.032Z,1004.94
2023-04-22T03:39:05.028Z,1004.96
2023-04-22T03:40:04.956Z,1004.91
2023-04-22T03:41:04.981Z,1004.91
2023-04-22T03:42:04.955Z,1004.94
2023-04-22T03:43:04.956Z,1004.96
2023-04-22T03:44:05.090Z,1004.96
2023-04-22T03:45:04.945Z,1004.92
2023-04-22T03:46:04.930Z,1004.97
2023-04-22T03:47:04.919Z,1004.96
2023-04-22T03:48:04.925Z,1004.92
2023-04-22T03:49:04.865Z,1004.93
2023-04-22T03:50:04.963Z,1004.87
2023-04-22T03:51:04.852Z,1004.85
2023-04-22T03:52:04.838Z,1004.87
2023-04-22T03:53:04.837Z,1004.86
2023-04-22T03:54:04.792Z,1004.81
2023-04-22T03:55:04.811Z,1004.88
2023-04-22T03:56:04.777Z,1004.87
2023-04-22T03:57:04.763Z,1004.87
2023-04-22T03:58:04.744Z,1004.86
2023-04-22T03:59:04.754Z,1004.87
2023-04-22T04:00:04.686Z,1004.81
2023-04-22T04:01:04.707Z,1004.83
2023-04-22T04:02:04.811Z,1004.88
2023-04-22T04:03:04.927Z,1004.85
2023-04-22T04:04:04.890Z,1004.84
2023-04-22T04:05:04.973Z,1004.83
2023-04-22T04:06:04.827Z,1004.82
2023-04-22T04:07:04.646Z,1004.79
2023-04-22T04:08:04.618Z,1004.79
2023-04-22T04:09:04.608Z,1004.79
2023-04-22T04:10:04.582Z,1004.82
2023-04-22T04:11:04.581Z,1004.80
2023-04-22T04:12:04.558Z,1004.82
2023-04-22T04:13:04.590Z,1004.76
2023-04-22T04:14:04.589Z,1004.76
2023-04-22T04:15:04.519Z,1004.73
2023-04-22T04:16:04.548Z,1004.68
2023-04-22T04:17:04.516Z,1004.71
2023-04-22T04:18:04.565Z,1004.66
2023-04-22T04:19:04.516Z,1004.67
2023-04-22T04:20:04.551Z,1004.70
2023-04-22T04:21:04.442Z,1004.66
2023-04-22T04:22:04.425Z,1004.67
2023-04-22T04:23:04.404Z,1004.66
2023-04-22T04:24:04.427Z,1004.67
2023-04-22T04:25:04.406Z,1004.70
2023-04-22T04:26:04.378Z,1004.68
2023-04-22T04:27:04.401Z,1004.69
2023-04-22T04:28:04.314Z,1004.75
2023-04-22T04:29:04.330Z,1004.71
2023-04-22T04:30:04.314Z,1004.75
2023-04-22T04:31:04.378Z,1004.68
2023-04-22T04:32:04.378Z,1004.75
2023-04-22T04:33:04.459Z,1004.70
2023-04-22T04:34:04.268Z,1004.73
2023-04-22T04:35:04.247Z,1004.76
2023-04-22T04:36:04.225Z,1004.74
2023-04-22T04:37:04.288Z,1004.71
2023-04-22T04:38:04.292Z,1004.80
2023-04-22T04:39:04.212Z,1004.73
2023-04-22T04:40:04.148Z,1004.73
2023-04-22T04:41:04.175Z,1004.75
2023-04-22T04:42:04.144Z,1004.73
2023-04-22T04:43:04.142Z,1004.71
2023-04-22T04:44:04.153Z,1004.78
2023-04-22T04:45:04.136Z,1004.76
2023-04-22T04:46:04.101Z,1004.71
2023-04-22T04:47:04.268Z,1004.71
2023-04-22T04:48:04.129Z,1004.72
2023-04-22T04:49:04.052Z,1004.74
2023-04-22T04:50:04.079Z,1004.62
2023-04-22T04:51:04.026Z,1004.69
2023-04-22T04:52:04.015Z,1004.70
2023-04-22T04:53:04.056Z,1004.68
2023-04-22T04:54:04.017Z,1004.66
2023-04-22T04:55:03.948Z,1004.63
2023-04-22T04:56:04.117Z,1004.61
2023-04-22T04:57:03.949Z,1004.62
2023-04-22T04:58:03.931Z,1004.60
2023-04-22T04:59:03.924Z,1004.59
2023-04-22T05:00:03.912Z,1004.59
2023-04-22T05:01:03.872Z,1004.65
2023-04-22T05:02:04.031Z,1004.62
2023-04-22T05:03:04.011Z,1004.63
2023-04-22T05:04:04.154Z,1004.71
2023-04-22T05:05:03.910Z,1004.67
2023-04-22T05:06:03.851Z,1004.59
2023-04-22T05:07:03.798Z,1004.68
2023-04-22T05:08:03.958Z,1004.65
2023-04-22T05:09:03.793Z,1004.64
2023-04-22T05:10:03.777Z,1004.69
2023-04-22T05:11:03.769Z,1004.66
2023-04-22T05:12:03.765Z,1004.70
2023-04-22T05:13:04.458Z,1004.72
2023-04-22T05:14:03.784Z,1004.66
2023-04-22T05:15:03.696Z,1004.71
2023-04-22T05:16:03.776Z,1004.66
2023-04-22T05:17:03.679Z,1004.65
2023-04-22T05:18:03.748Z,1004.70
2023-04-22T05:19:03.643Z,1004.71
2023-04-22T05:20:03.791Z,1004.68
2023-04-22T05:21:03.638Z,1004.65
2023-04-22T05:22:03.630Z,1004.70
2023-04-22T05:23:03.617Z,1004.64
2023-04-22T05:24:03.584Z,1004.74
2023-04-22T05:25:03.547Z,1004.71
2023-04-22T05:26:03.644Z,1004.74
2023-04-22T05:27:03.523Z,1004.72
2023-04-22T05:28:03.561Z,1004.74
2023-04-22T05:29:03.527Z,1004.73
2023-04-22T05:30:03.515Z,1004.76
2023-04-22T05:31:03.502Z,1004.74
2023-04-22T05:32:03.545Z,1004.76
2023-04-22T05:33:03.529Z,1004.76
2023-04-22T05:34:03.496Z,1004.71
2023-04-22T05:35:03.451Z,1004.74
2023-04-22T05:36:03.432Z,1004.75
2023-04-22T05:37:03.386Z,1004.75
2023-04-22T05:38:03.463Z,1004.80
2023-04-22T05:39:03.352Z,1004.78
2023-04-22T05:40:03.399Z,1004.79
2023-04-22T05:41:03.391Z,1004.78
2023-04-22T05:42:03.355Z,1004.73
2023-04-22T05:43:03.327Z,1004.77
2023-04-22T05:44:03.440Z,1004.80
2023-04-22T05:45:03.308Z,1004.78
2023-04-22T05:46:03.370Z,1004.77
2023-04-22T05:47:03.264Z,1004.78
2023-04-22T05:48:03.312Z,1004.75
2023-04-22T05:49:03.258Z,1004.73
2023-04-22T05:50:03.276Z,1004.77
2023-04-22T05:51:03.229Z,1004.78
2023-04-22T05:52:03.218Z,1004.76
2023-04-22T05:53:03.176Z,1004.75
2023-04-22T05:54:03.198Z,1004.70
2023-04-22T05:55:03.145Z,1004.76
2023-04-22T05:56:03.297Z,1004.67
2023-04-22T05:57:03.148Z,1004.73
2023-04-22T05:58:03.130Z,1004.74
2023-04-22T05:59:03.124Z,1004.74
2023-04-22T06:00:03.109Z,1004.69
2023-04-22T06:01:03.064Z,1004.65
2023-04-22T06:02:03.209Z,1004.65
2023-04-22T06:03:03.245Z,1004.59
2023-04-22T06:04:03.387Z,1004.56
2023-04-22T06:05:03.202Z,1004.57
2023-04-22T06:06:03.075Z,1004.60
2023-04-22T06:07:02.980Z,1004.62
2023-04-22T06:08:03.149Z,1004.66
2023-04-22T06:09:02.980Z,1004.68
2023-04-22T06:11:03.990Z,1004.73
2023-04-22T06:12:02.943Z,1004.68
2023-04-22T06:13:02.912Z,1004.67
2023-04-22T06:14:02.989Z,1004.68
2023-04-22T06:15:02.894Z,1004.73
2023-04-22T06:16:02.937Z,1004.67
2023-04-22T06:17:02.895Z,1004.67
2023-04-22T06:18:02.907Z,1004.68
2023-04-22T06:19:02.863Z,1004.66
2023-04-22T06:20:02.965Z,1004.59
2023-04-22T06:21:02.814Z,1004.60
2023-04-22T06:22:02.839Z,1004.61
2023-04-22T06:23:02.794Z,1004.57
2023-04-22T06:24:02.781Z,1004.65
2023-04-22T06:25:02.748Z,1004.62
2023-04-22T06:26:02.904Z,1004.65
2023-04-22T06:27:02.723Z,1004.69
2023-04-22T06:28:02.770Z,1004.65
2023-04-22T06:29:02.719Z,1004.69
2023-04-22T06:30:02.721Z,1004.70
2023-04-22T06:31:02.765Z,1004.72
2023-04-22T06:32:02.723Z,1004.65
2023-04-22T06:33:02.680Z,1004.67
2023-04-22T06:34:02.708Z,1004.67
2023-04-22T06:35:02.615Z,1004.65
2023-04-22T06:36:02.660Z,1004.63
2023-04-22T06:37:02.611Z,1004.62
2023-04-22T06:38:02.634Z,1004.60
2023-04-22T06:39:02.579Z,1004.61
2023-04-22T06:40:02.603Z,1004.59
2023-04-22T06:41:02.569Z,1004.63
2023-04-22T06:42:02.549Z,1004.55
2023-04-22T06:43:02.529Z,1004.59
2023-04-22T06:44:02.561Z,1004.58
2023-04-22T06:45:02.487Z,1004.57
2023-04-22T06:46:02.539Z,1004.54
2023-04-22T06:47:02.517Z,1004.57
2023-04-22T06:48:02.490Z,1004.56
2023-04-22T06:49:02.454Z,1004.58
2023-04-22T06:50:02.546Z,1004.56
2023-04-22T06:51:02.474Z,1004.56
2023-04-22T06:52:02.409Z,1004.56
2023-04-22T06:53:02.410Z,1004.50
2023-04-22T06:54:02.409Z,1004.52
2023-04-22T06:55:02.346Z,1004.52
2023-04-22T06:56:02.440Z,1004.48
2023-04-22T06:57:02.347Z,1004.51
2023-04-22T06:58:02.333Z,1004.45
2023-04-22T06:59:02.319Z,1004.48
2023-04-22T07:00:02.313Z,1004.45
2023-04-22T07:01:02.268Z,1004.42
2023-04-22T07:02:02.527Z,1004.39
2023-04-22T07:03:02.307Z,1004.39
2023-04-22T07:04:02.297Z,1004.36
2023-04-22T07:05:02.238Z,1004.40
2023-04-22T07:06:02.234Z,1004.35
2023-04-22T07:07:02.207Z,1004.39
2023-04-22T07:08:02.231Z,1004.31
2023-04-22T07:09:02.163Z,1004.32
2023-04-22T07:10:02.194Z,1004.34
2023-04-22T07:11:02.159Z,1004.37
2023-04-22T07:12:02.144Z,1004.32
2023-04-22T07:13:02.100Z,1004.30
2023-04-22T07:14:02.175Z,1004.33
2023-04-22T07:15:02.084Z,1004.27
2023-04-22T07:16:02.172Z,1004.29
2023-04-22T07:17:02.073Z,1004.29
2023-04-22T07:18:02.074Z,1004.22
2023-04-22T07:19:02.050Z,1004.25
2023-04-22T07:20:02.063Z,1004.17
2023-04-22T07:21:02.013Z,1004.18
2023-04-22T07:22:02.037Z,1004.20
2023-04-22T07:23:01.978Z,1004.19
2023-04-22T07:24:02.022Z,1004.16
2023-04-22T07:25:01.990Z,1004.14
2023-04-22T07:26:01.991Z,1004.17
2023-04-22T07:27:01.908Z,1004.15
2023-04-22T07:28:01.949Z,1004.14
2023-04-22T07:29:01.917Z,1004.13
2023-04-22T07:30:01.901Z,1004.15
2023-04-22T07:31:01.887Z,1004.17
2023-04-22T07:32:02.054Z,1004.19
2023-04-22T07:33:01.887Z,1004.17
2023-04-22T07:34:01.876Z,1004.15
2023-04-22T07:35:01.811Z,1004.13
2023-04-22T07:36:01.857Z,1004.15
2023-04-22T07:37:01.807Z,1004.12
2023-04-22T07:38:01.826Z,1004.07
2023-04-22T07:39:01.781Z,1004.11
2023-04-22T07:40:01.765Z,1004.12
2023-04-22T07:41:01.724Z,1004.18
2023-04-22T07:42:01.775Z,1004.16
2023-04-22T07:43:01.723Z,1004.15
2023-04-22T07:44:01.770Z,1004.15
2023-04-22T07:45:01.673Z,1004.21
2023-04-22T07:46:01.736Z,1004.26
2023-04-22T07:47:01.656Z,1004.28
2023-04-22T07:48:01.748Z,1004.32
2023-04-22T07:49:01.713Z,1004.26
2023-04-22T07:50:01.799Z,1004.30
2023-04-22T07:51:01.653Z,1004.32
2023-04-22T07:52:01.606Z,1004.34
2023-04-22T07:53:01.570Z,1004.36
2023-04-22T07:54:01.620Z,1004.32
2023-04-22T07:55:01.539Z,1004.38
2023-04-22T07:56:02.220Z,1004.41
2023-04-22T07:57:01.538Z,1004.45
2023-04-22T07:58:01.529Z,1004.49
2023-04-22T07:59:01.513Z,1004.38
2023-04-22T08:00:01.537Z,1004.40
2023-04-22T08:01:01.484Z,1004.33
2023-04-22T08:02:01.642Z,1004.31
2023-04-22T08:03:01.558Z,1004.35
2023-04-22T08:04:01.819Z,1004.39
2023-04-22T08:05:01.591Z,1004.32
2023-04-22T08:06:01.428Z,1004.33
2023-04-22T08:07:01.922Z,1004.34
2023-04-22T08:08:01.507Z,1004.36
2023-04-22T08:09:01.348Z,1004.35
2023-04-22T08:10:01.449Z,1004.28
2023-04-22T08:11:01.345Z,1004.24
2023-04-22T08:12:01.370Z,1004.27
2023-04-22T08:13:01.340Z,1004.28
2023-04-22T08:14:01.431Z,1004.23
2023-04-22T08:15:01.294Z,1004.21
2023-04-22T08:16:01.374Z,1004.21
2023-04-22T08:17:01.278Z,1004.15
2023-04-22T08:18:01.344Z,1004.14
2023-04-22T08:19:01.256Z,1004.10
2023-04-22T08:20:01.353Z,1004.14
2023-04-22T08:21:01.196Z,1004.14
2023-04-22T08:22:01.242Z,1004.13
2023-04-22T08:23:01.181Z,1004.15
2023-04-22T08:24:01.208Z,1004.07
2023-04-22T08:25:01.164Z,1004.07
2023-04-22T08:26:01.282Z,1004.04
2023-04-22T08:27:01.150Z,1004.03
2023-04-22T08:28:01.147Z,1004.07
2023-04-22T08:29:01.123Z,1004.05
2023-04-22T08:30:01.131Z,1004.05
2023-04-22T08:31:01.245Z,1004.02
2023-04-22T08:32:01.110Z,1004.04
2023-04-22T08:33:01.064Z,1004.00
2023-04-22T08:34:01.080Z,1004.01
2023-04-22T08:35:04.959Z,1003.96
2023-04-22T08:36:01.066Z,1003.95
2023-04-22T08:37:01.026Z,1003.99
2023-04-22T08:38:01.123Z,1003.96
2023-04-22T08:39:00.999Z,1004.02
2023-04-22T08:40:00.980Z,1003.99
2023-04-22T08:41:00.930Z,1004.00
2023-04-22T08:42:00.971Z,1003.99
2023-04-22T08:43:00.914Z,1003.99
2023-04-22T08:44:00.974Z,1004.01
2023-04-22T08:45:00.902Z,1003.97
2023-04-22T08:46:00.902Z,1003.98
2023-04-22T08:47:02.633Z,1003.98
2023-04-22T08:48:00.934Z,1003.91
2023-04-22T08:49:00.862Z,1003.98
2023-04-22T08:50:00.883Z,1003.94
2023-04-22T08:51:00.829Z,1003.93
2023-04-22T08:52:00.824Z,1003.92
2023-04-22T08:53:00.765Z,1003.94
2023-04-22T08:54:00.826Z,1003.91
2023-04-22T08:55:00.755Z,1003.94
2023-04-22T08:56:00.839Z,1003.92
2023-04-22T08:57:00.749Z,1003.91
2023-04-22T08:58:00.734Z,1003.89
2023-04-22T08:59:00.716Z,1003.93
2023-04-22T09:00:00.724Z,1003.91
2023-04-22T09:01:00.671Z,1003.92
2023-04-22T09:02:00.797Z,1003.89
2023-04-22T09:03:00.760Z,1003.85
2023-04-22T09:04:00.768Z,1003.89
2023-04-22T09:05:00.650Z,1003.86
2023-04-22T09:06:00.629Z,1003.89
2023-04-22T09:07:00.617Z,1003.88
2023-04-22T09:08:00.724Z,1003.88
2023-04-22T09:09:00.614Z,1003.84
2023-04-22T09:10:00.559Z,1003.88
2023-04-22T09:11:00.598Z,1003.86
2023-04-22T09:12:00.516Z,1003.85
2023-04-22T09:13:00.528Z,1003.81
2023-04-22T09:14:00.579Z,1003.84
2023-04-22T09:15:00.515Z,1003.80
2023-04-22T09:16:00.539Z,1003.81
2023-04-22T09:17:00.501Z,1003.78
2023-04-22T09:18:00.504Z,1003.71
2023-04-22T09:19:00.467Z,1003.71
2023-04-22T09:20:00.472Z,1003.69
2023-04-22T09:21:00.452Z,1003.69
2023-04-22T09:22:00.392Z,1003.64
2023-04-22T09:23:00.422Z,1003.71
2023-04-22T09:24:00.371Z,1003.74
2023-04-22T09:25:00.381Z,1003.71
2023-04-22T09:26:00.403Z,1003.79
2023-04-22T09:27:00.383Z,1003.74
2023-04-22T09:28:00.344Z,1003.67
2023-04-22T09:29:00.350Z,1003.72
2023-04-22T09:30:00.278Z,1003.68
2023-04-22T09:31:00.321Z,1003.70
2023-04-22T09:32:00.354Z,1003.65
2023-04-22T09:33:00.350Z,1003.71
2023-04-22T09:34:00.253Z,1003.71
2023-04-22T09:35:00.268Z,1003.69
2023-04-22T09:36:00.207Z,1003.70
2023-04-22T09:37:00.266Z,1003.72
2023-04-22T09:38:00.243Z,1003.64
2023-04-22T09:39:00.202Z,1003.66
2023-04-22T09:40:00.205Z,1003.59
2023-04-22T09:41:00.185Z,1003.62
2023-04-22T09:42:00.116Z,1003.62
2023-04-22T09:43:00.160Z,1003.63
2023-04-22T09:44:00.209Z,1003.63
2023-04-22T09:45:01.836Z,1003.56
2023-04-22T09:46:00.174Z,1003.61
2023-04-22T09:47:00.074Z,1003.60
2023-04-22T09:48:00.135Z,1003.60
2023-04-22T09:49:00.124Z,1003.58
2023-04-22T09:50:00.041Z,1003.56
2023-04-22T09:51:00.024Z,1003.58
2023-04-22T09:52:00.015Z,1003.58
2023-04-22T09:52:59.970Z,1003.54
2023-04-22T09:53:59.958Z,1003.54
2023-04-22T09:55:00.000Z,1003.52
2023-04-22T09:56:00.060Z,1003.48
2023-04-22T09:56:59.946Z,1003.50
2023-04-22T09:57:59.940Z,1003.49
2023-04-22T09:58:59.921Z,1003.48
2023-04-22T09:59:59.910Z,1003.51
2023-04-22T10:00:59.972Z,1003.48
2023-04-22T10:01:59.884Z,1003.49
2023-04-22T10:02:59.977Z,1003.52
2023-04-22T10:03:59.921Z,1003.51
2023-04-22T10:04:59.840Z,1003.46
2023-04-22T10:05:59.834Z,1003.45
2023-04-22T10:06:59.807Z,1003.42
2023-04-22T10:07:59.847Z,1003.42
2023-04-22T10:08:59.811Z,1003.37
2023-04-22T10:09:59.757Z,1003.41
2023-04-22T10:10:59.798Z,1003.41
2023-04-22T10:11:59.721Z,1003.36
2023-04-22T10:12:59.734Z,1003.30
2023-04-22T10:13:59.841Z,1003.38
2023-04-22T10:14:59.710Z,1003.35
2023-04-22T10:15:59.705Z,1003.31
2023-04-22T10:16:59.829Z,1003.30
2023-04-22T10:17:59.675Z,1003.33
2023-04-22T10:18:59.683Z,1003.35
2023-04-22T10:19:59.645Z,1003.30
2023-04-22T10:20:59.634Z,1003.25
2023-04-22T10:21:59.620Z,1003.28
2023-04-22T10:22:59.632Z,1003.27
2023-04-22T10:23:59.570Z,1003.25
2023-04-22T10:24:59.581Z,1003.26
2023-04-22T10:25:59.701Z,1003.23
2023-04-22T10:26:59.726Z,1003.21
2023-04-22T10:27:59.541Z,1003.22
2023-04-22T10:28:59.569Z,1003.21
2023-04-22T10:29:59.484Z,1003.21
2023-04-22T10:30:59.568Z,1003.18
2023-04-22T10:31:59.507Z,1003.13
2023-04-22T10:32:59.535Z,1003.17
2023-04-22T10:33:59.467Z,1003.20
2023-04-22T10:34:59.453Z,1003.08
2023-04-22T10:35:59.565Z,1003.11
2023-04-22T10:37:02.233Z,1003.07
2023-04-22T10:37:59.410Z,1003.06
2023-04-22T10:38:59.419Z,1003.06
2023-04-22T10:39:59.387Z,1003.05
2023-04-22T10:40:59.402Z,1003.08
2023-04-22T10:41:59.334Z,1003.03
2023-04-22T10:42:59.375Z,1003.01
2023-04-22T10:43:59.357Z,1002.96
2023-04-22T10:44:59.314Z,1002.94
2023-04-22T10:45:59.326Z,1002.94
2023-04-22T10:46:59.292Z,1002.86
2023-04-22T10:47:59.331Z,1002.93
2023-04-22T10:48:59.294Z,1002.87
2023-04-22T10:49:59.273Z,1002.87
2023-04-22T10:50:59.279Z,1002.88
2023-04-22T10:51:59.219Z,1002.91
2023-04-22T10:52:59.228Z,1002.88
2023-04-22T10:53:59.209Z,1002.86
2023-04-22T10:54:59.237Z,1002.82
2023-04-22T10:55:59.199Z,1002.84
2023-04-22T10:56:59.217Z,1002.83
2023-04-22T10:57:59.153Z,1002.76
2023-04-22T10:58:59.163Z,1002.72
2023-04-22T10:59:59.121Z,1002.71
2023-04-22T11:00:59.159Z,1002.73
2023-04-22T11:01:59.215Z,1002.72
2023-04-22T11:02:59.212Z,1002.76
2023-04-22T11:03:59.126Z,1002.70
2023-04-22T11:04:59.055Z,1002.68
2023-04-22T11:05:59.051Z,1002.68
2023-04-22T11:06:59.031Z,1002.68
2023-04-22T11:07:59.052Z,1002.65
2023-04-22T11:08:59.052Z,1002.65
2023-04-22T11:09:58.965Z,1002.58
2023-04-22T11:10:59.000Z,1002.65
2023-04-22T11:11:58.946Z,1002.65
2023-04-22T11:12:58.951Z,1002.64
2023-04-22T11:13:59.054Z,1002.66
2023-04-22T11:14:58.973Z,1002.65
2023-04-22T11:15:58.950Z,1002.62
2023-04-22T11:16:58.917Z,1002.59
2023-04-22T11:17:58.958Z,1002.67
2023-04-22T11:18:58.893Z,1002.60
2023-04-22T11:19:58.954Z,1002.58
2023-04-22T11:20:58.845Z,1002.62
2023-04-22T11:21:58.851Z,1002.58
2023-04-22T11:22:58.810Z,1002.57
2023-04-22T11:23:58.809Z,1002.56
2023-04-22T11:24:58.842Z,1002.54
2023-04-22T11:25:58.838Z,1002.55
2023-04-22T11:26:58.776Z,1002.56
2023-04-22T11:27:58.738Z,1002.56
2023-04-22T11:28:58.760Z,1002.53
2023-04-22T11:29:58.698Z,1002.43
2023-04-22T11:30:58.726Z,1002.46
2023-04-22T11:31:58.762Z,1002.48
2023-04-22T11:32:58.696Z,1002.41
2023-04-22T11:33:58.678Z,1002.41
2023-04-22T11:34:58.672Z,1002.38
2023-04-22T11:35:58.644Z,1002.35
2023-04-22T11:36:58.644Z,1002.43
2023-04-22T11:37:58.607Z,1002.36
2023-04-22T11:38:58.629Z,1002.31
2023-04-22T11:40:58.583Z,1002.33
2023-04-22T11:41:58.556Z,1002.33
2023-04-22T11:42:58.573Z,1002.34
2023-04-22T11:43:58.612Z,1002.32
2023-04-22T11:44:58.525Z,1002.32
2023-04-22T11:45:58.576Z,1002.29
2023-04-22T11:46:58.522Z,1002.25
2023-04-22T11:47:58.558Z,1002.22
2023-04-22T11:48:58.483Z,1002.23
2023-04-22T11:49:58.454Z,1002.22
2023-04-22T11:50:58.482Z,1002.28
2023-04-22T11:51:58.395Z,1002.29
2023-04-22T11:52:58.411Z,1002.22
2023-04-22T11:53:58.396Z,1002.23
2023-04-22T11:54:58.385Z,1002.29
2023-04-22T11:55:58.471Z,1002.24
2023-04-22T11:56:58.379Z,1002.27
2023-04-22T11:57:58.324Z,1002.26
2023-04-22T11:58:58.329Z,1002.16
2023-04-22T11:59:58.325Z,1002.16
2023-04-22T12:00:58.324Z,1002.18
2023-04-22T12:01:58.317Z,1002.13
2023-04-22T12:02:58.535Z,1002.11
2023-04-22T12:03:58.367Z,1002.05
2023-04-22T12:04:58.264Z,1002.07
2023-04-22T12:05:58.245Z,1002.10
2023-04-22T12:06:58.223Z,1002.07